Time;durP1;ratioP1;P1;durP2;ratioP2;P2;SDS_P1;SDS_P2;PMS_P1;PMS_P2;Temp;Humidity;BMP_temperature;BMP_pressure;BME280_temperature;BME280_humidity;BME280_pressure;Samples;Min_cycle;Max_cycle;Signal;HPM_P1;HPM_P2
2021/12/09 00:00:36;;;;;;;20.58;10.77;;;;;;;;;;5027286;28;20084;-77
2021/12/09 00:03:06;;;;;;;20.92;11.20;;;;;;;;;;5026921;28;20056;-79
2021/12/09 00:05:35;;;;;;;18.52;10.95;;;;;;;;;;5030314;28;20033;-77
2021/12/09 00:08:03;;;;;;;19.48;10.80;;;;;;;;;;5032848;28;20060;-78
2021/12/09 00:10:30;;;;;;;20.13;10.60;;;;;;;;;;5031658;28;20061;-78
2021/12/09 00:12:57;;;;;;;18.90;10.25;;;;;;;;;;5028834;28;20050;-78
2021/12/09 00:15:25;;;;;;;20.02;10.10;;;;;;;;;;5027798;28;20058;-78
2021/12/09 00:17:52;;;;;;;19.05;9.75;;;;;;;;;;5027009;28;20057;-78
2021/12/09 00:20:19;;;;;;;19.63;10.25;;;;;;;;;;5026665;28;20050;-77
2021/12/09 00:22:46;;;;;;;19.05;10.32;;;;;;;;;;5028549;28;20085;-78
2021/12/09 00:25:14;;;;;;;19.20;9.50;;;;;;;;;;5028549;28;20046;-78
2021/12/09 00:27:41;;;;;;;21.35;9.82;;;;;;;;;;5027721;28;20480;-78
2021/12/09 00:30:10;;;;;;;19.45;10.95;;;;;;;;;;5028202;28;20088;-78
2021/12/09 00:32:42;;;;;;;20.92;11.65;;;;;;;;;;5028389;28;20054;-78
2021/12/09 00:35:13;;;;;;;17.40;9.73;;;;;;;;;;5028539;28;20050;-77
2021/12/09 00:37:50;;;;;;;20.45;10.50;;;;;;;;;;5028880;28;20049;-79
2021/12/09 00:40:17;;;;;;;16.80;9.63;;;;;;;;;;5028695;28;20041;-78
2021/12/09 00:42:44;;;;;;;17.65;9.75;;;;;;;;;;5028547;28;20046;-77
2021/12/09 00:45:11;;;;;;;17.38;9.55;;;;;;;;;;5028059;28;20053;-78
2021/12/09 00:47:39;;;;;;;17.23;9.85;;;;;;;;;;5027802;28;20046;-77
2021/12/09 00:50:08;;;;;;;20.77;9.13;;;;;;;;;;5027545;28;20054;-78
2021/12/09 00:52:35;;;;;;;17.92;8.82;;;;;;;;;;5026952;28;20072;-78
2021/12/09 00:55:02;;;;;;;16.55;8.95;;;;;;;;;;5026577;28;20418;-78
2021/12/09 00:57:29;;;;;;;18.08;9.45;;;;;;;;;;5027446;28;20046;-76
2021/12/09 00:59:58;;;;;;;17.88;9.48;;;;;;;;;;5027206;28;20484;-78
2021/12/09 01:02:25;;;;;;;18.80;9.50;;;;;;;;;;5027215;28;20058;-78
2021/12/09 01:04:53;;;;;;;17.85;8.85;;;;;;;;;;5028355;28;20161;-78
2021/12/09 01:07:20;;;;;;;13.20;7.65;;;;;;;;;;5026903;28;20065;-78
2021/12/09 01:09:47;;;;;;;16.25;8.95;;;;;;;;;;5027661;28;20056;-78
2021/12/09 01:12:14;;;;;;;13.52;8.18;;;;;;;;;;5028563;28;20096;-79
2021/12/09 01:14:41;;;;;;;18.02;8.90;;;;;;;;;;5027890;28;20447;-79
2021/12/09 01:17:09;;;;;;;14.60;8.00;;;;;;;;;;5028284;28;20088;-80
2021/12/09 01:19:37;;;;;;;15.90;8.05;;;;;;;;;;5028137;28;20049;-79
2021/12/09 01:22:06;;;;;;;16.50;8.32;;;;;;;;;;5027847;28;20030;-78
2021/12/09 01:27:10;;;;;;;14.70;7.88;;;;;;;;;;5008727;28;20085;-79
2021/12/09 01:29:39;;;;;;;12.57;7.03;;;;;;;;;;5013119;28;20054;-78
2021/12/09 01:32:09;;;;;;;15.02;7.68;;;;;;;;;;5012991;28;20081;-78
2021/12/09 01:34:37;;;;;;;15.95;8.00;;;;;;;;;;5013141;28;20085;-78
2021/12/09 01:37:05;;;;;;;14.90;7.47;;;;;;;;;;5013129;28;20074;-78
2021/12/09 01:39:33;;;;;;;15.18;7.90;;;;;;;;;;5013521;28;20237;-78
2021/12/09 01:42:03;;;;;;;13.95;8.13;;;;;;;;;;5013088;28;20085;-78
2021/12/09 01:44:30;;;;;;;12.88;7.78;;;;;;;;;;5013040;28;20049;-78
2021/12/09 01:46:57;;;;;;;15.27;7.60;;;;;;;;;;5014696;28;20111;-79
2021/12/09 01:49:24;;;;;;;11.60;7.30;;;;;;;;;;5020013;28;20057;-79
2021/12/09 01:51:51;;;;;;;13.65;8.43;;;;;;;;;;5023151;28;20046;-79
2021/12/09 01:54:23;;;;;;;14.85;7.82;;;;;;;;;;5019129;28;20104;-79
2021/12/09 01:56:50;;;;;;;12.77;7.40;;;;;;;;;;5018909;28;20065;-78
2021/12/09 01:59:16;;;;;;;14.07;7.40;;;;;;;;;;5018586;28;20054;-78
2021/12/09 02:01:43;;;;;;;13.20;7.60;;;;;;;;;;5018732;28;20058;-79
2021/12/09 02:04:12;;;;;;;14.75;7.82;;;;;;;;;;5021128;28;20064;-78
2021/12/09 02:06:41;;;;;;;15.75;7.47;;;;;;;;;;5019676;28;20052;-78
2021/12/09 02:09:09;;;;;;;13.90;7.47;;;;;;;;;;5018372;28;20052;-80
2021/12/09 02:11:38;;;;;;;13.55;7.55;;;;;;;;;;5021403;28;20432;-80
2021/12/09 02:14:05;;;;;;;13.27;6.85;;;;;;;;;;5021185;28;20528;-79
2021/12/09 02:16:33;;;;;;;12.43;6.97;;;;;;;;;;5021388;28;20085;-80
2021/12/09 02:19:00;;;;;;;11.98;6.93;;;;;;;;;;5021070;28;20497;-80
2021/12/09 02:21:30;;;;;;;13.48;6.75;;;;;;;;;;5022603;28;20054;-81
2021/12/09 02:24:01;;;;;;;16.55;8.52;;;;;;;;;;5021838;28;20050;-80
2021/12/09 02:26:30;;;;;;;12.27;6.97;;;;;;;;;;5021169;28;20501;-79
2021/12/09 02:28:58;;;;;;;12.77;7.78;;;;;;;;;;5022543;28;20128;-81
2021/12/09 02:31:26;;;;;;;13.90;7.30;;;;;;;;;;5022668;28;20470;-80
2021/12/09 02:33:53;;;;;;;11.98;6.57;;;;;;;;;;5022920;28;20053;-80
2021/12/09 02:36:21;;;;;;;14.68;7.15;;;;;;;;;;5022931;28;20109;-80
2021/12/09 02:38:50;;;;;;;11.70;6.53;;;;;;;;;;5022376;28;20057;-78
2021/12/09 02:41:19;;;;;;;13.63;7.05;;;;;;;;;;5016781;28;20046;-79
2021/12/09 02:43:48;;;;;;;12.40;6.65;;;;;;;;;;5018141;28;20057;-80
2021/12/09 02:46:16;;;;;;;12.38;6.72;;;;;;;;;;5022251;28;20453;-79
2021/12/09 02:48:44;;;;;;;12.60;6.90;;;;;;;;;;5022000;28;20081;-80
2021/12/09 02:51:11;;;;;;;15.07;7.18;;;;;;;;;;5020686;28;20050;-78
2021/12/09 02:53:38;;;;;;;13.00;7.13;;;;;;;;;;5018108;28;20489;-78
2021/12/09 02:56:07;;;;;;;13.23;6.82;;;;;;;;;;5017871;28;20469;-78
2021/12/09 02:58:34;;;;;;;13.98;7.10;;;;;;;;;;5017771;28;20046;-79
2021/12/09 03:01:05;;;;;;;12.18;6.32;;;;;;;;;;5018345;28;20057;-79
2021/12/09 03:03:32;;;;;;;11.70;6.68;;;;;;;;;;5017300;28;20073;-79
2021/12/09 03:06:01;;;;;;;13.15;7.00;;;;;;;;;;5017746;28;20050;-78
2021/12/09 03:08:34;;;;;;;11.90;6.35;;;;;;;;;;5022102;28;20046;-79
2021/12/09 03:11:06;;;;;;;12.98;7.72;;;;;;;;;;5023211;28;20100;-79
2021/12/09 03:13:33;;;;;;;12.27;7.13;;;;;;;;;;5016764;28;20054;-79
2021/12/09 03:16:00;;;;;;;13.65;7.22;;;;;;;;;;5017905;28;20053;-78
2021/12/09 03:18:27;;;;;;;14.30;8.32;;;;;;;;;;5017665;28;20100;-77
2021/12/09 03:20:54;;;;;;;14.30;7.65;;;;;;;;;;5015502;28;20515;-78
2021/12/09 03:23:22;;;;;;;11.57;6.72;;;;;;;;;;5016129;28;20054;-79
2021/12/09 03:25:50;;;;;;;11.50;6.75;;;;;;;;;;5015684;28;20085;-77
2021/12/09 03:28:18;;;;;;;12.95;7.30;;;;;;;;;;5018100;28;20058;-79
2021/12/09 03:30:45;;;;;;;15.45;7.38;;;;;;;;;;5020330;28;20049;-78
2021/12/09 03:33:12;;;;;;;12.88;7.60;;;;;;;;;;5019868;28;20049;-78
2021/12/09 03:35:39;;;;;;;12.20;7.07;;;;;;;;;;5018352;28;20050;-77
2021/12/09 03:38:06;;;;;;;13.27;7.07;;;;;;;;;;5024286;28;20108;-78
2021/12/09 03:40:33;;;;;;;12.95;7.15;;;;;;;;;;5024129;28;20481;-78
2021/12/09 03:43:00;;;;;;;11.75;6.70;;;;;;;;;;5027655;28;20053;-80
2021/12/09 03:45:29;;;;;;;13.23;7.13;;;;;;;;;;5024853;28;20057;-80
2021/12/09 03:47:55;;;;;;;12.82;6.55;;;;;;;;;;5027448;28;20085;-78
2021/12/09 03:50:22;;;;;;;14.95;7.65;;;;;;;;;;5026389;28;20053;-78
2021/12/09 03:52:49;;;;;;;15.80;8.07;;;;;;;;;;5026936;28;20160;-79
2021/12/09 03:55:16;;;;;;;15.50;8.15;;;;;;;;;;5027684;28;20054;-79
2021/12/09 03:57:44;;;;;;;15.02;8.18;;;;;;;;;;5027159;28;20049;-78
2021/12/09 04:00:15;;;;;;;14.73;7.85;;;;;;;;;;5028094;28;20141;-78
2021/12/09 04:02:43;;;;;;;16.10;7.93;;;;;;;;;;5029243;28;20120;-78
2021/12/09 04:05:10;;;;;;;15.45;7.57;;;;;;;;;;5029043;28;20049;-79
2021/12/09 04:07:37;;;;;;;15.07;8.32;;;;;;;;;;5027282;28;20081;-77
2021/12/09 04:10:07;;;;;;;15.13;7.95;;;;;;;;;;5024731;28;20045;-78
2021/12/09 04:12:34;;;;;;;16.08;8.70;;;;;;;;;;5028756;28;20053;-78
2021/12/09 04:15:01;;;;;;;16.27;8.05;;;;;;;;;;5029098;28;20046;-79
2021/12/09 04:17:28;;;;;;;15.15;7.55;;;;;;;;;;5029078;28;20046;-78
2021/12/09 04:19:56;;;;;;;17.48;8.98;;;;;;;;;;5029326;28;20050;-78
2021/12/09 04:22:23;;;;;;;17.27;9.32;;;;;;;;;;5027422;28;20080;-78
2021/12/09 04:24:52;;;;;;;17.52;9.45;;;;;;;;;;5027181;28;20049;-79
2021/12/09 04:27:20;;;;;;;18.05;8.77;;;;;;;;;;5029007;28;20057;-79
2021/12/09 04:29:47;;;;;;;18.55;8.68;;;;;;;;;;5028980;28;20053;-79
2021/12/09 04:32:14;;;;;;;17.05;8.90;;;;;;;;;;5029173;28;20053;-79
2021/12/09 04:34:41;;;;;;;18.05;9.00;;;;;;;;;;5025497;28;20046;-78
2021/12/09 04:37:09;;;;;;;16.58;8.00;;;;;;;;;;5028134;28;20089;-78
2021/12/09 04:39:36;;;;;;;17.55;8.35;;;;;;;;;;5026347;28;20053;-78
2021/12/09 04:42:04;;;;;;;18.17;8.48;;;;;;;;;;5029493;28;20053;-79
2021/12/09 04:44:31;;;;;;;16.77;8.07;;;;;;;;;;5029424;28;20046;-79
2021/12/09 04:47:00;;;;;;;18.98;8.80;;;;;;;;;;5028396;28;20100;-78
2021/12/09 04:49:27;;;;;;;18.70;9.45;;;;;;;;;;5029967;28;20070;-78
2021/12/09 04:51:57;;;;;;;17.15;9.05;;;;;;;;;;5029305;28;20050;-79
2021/12/09 04:54:25;;;;;;;21.13;9.90;;;;;;;;;;5022519;28;20049;-78
2021/12/09 04:56:53;;;;;;;19.40;9.88;;;;;;;;;;5021142;28;20117;-79
2021/12/09 04:59:20;;;;;;;19.60;10.05;;;;;;;;;;5020476;28;20457;-79
2021/12/09 05:01:49;;;;;;;19.55;9.00;;;;;;;;;;5019599;28;20065;-80
2021/12/09 05:04:17;;;;;;;18.83;9.25;;;;;;;;;;5020239;28;20046;-80
2021/12/09 05:06:44;;;;;;;19.17;8.80;;;;;;;;;;5018595;28;20049;-78
2021/12/09 05:09:16;;;;;;;19.65;9.80;;;;;;;;;;5017135;28;20054;-79
2021/12/09 05:11:50;;;;;;;21.40;9.30;;;;;;;;;;5021729;28;20060;-80
2021/12/09 05:14:19;;;;;;;18.33;9.48;;;;;;;;;;5019128;28;20059;-79
2021/12/09 05:16:48;;;;;;;20.20;9.88;;;;;;;;;;5017200;28;20056;-79
2021/12/09 05:19:15;;;;;;;20.98;9.95;;;;;;;;;;5018296;28;20053;-78
2021/12/09 05:21:41;;;;;;;19.05;9.13;;;;;;;;;;5021464;28;20100;-80
2021/12/09 05:24:11;;;;;;;19.60;9.30;;;;;;;;;;5018639;28;20054;-79
2021/12/09 05:26:43;;;;;;;19.10;9.18;;;;;;;;;;5017680;28;20053;-79
2021/12/09 05:29:12;;;;;;;19.70;9.35;;;;;;;;;;5021067;28;20045;-79
2021/12/09 05:34:24;;;;;;;19.85;9.23;;;;;;;;;;5017657;28;20515;-78
2021/12/09 05:36:51;;;;;;;21.92;10.07;;;;;;;;;;5017758;28;20050;-79
2021/12/09 05:39:19;;;;;;;21.63;9.98;;;;;;;;;;5016672;28;20521;-79
2021/12/09 05:41:47;;;;;;;20.52;8.77;;;;;;;;;;5017764;28;20042;-79
2021/12/09 05:44:16;;;;;;;20.58;8.80;;;;;;;;;;5017351;28;20505;-79
2021/12/09 05:46:45;;;;;;;18.27;8.35;;;;;;;;;;5017562;28;20054;-79
2021/12/09 05:49:14;;;;;;;17.35;8.73;;;;;;;;;;5019975;28;20045;-80
2021/12/09 05:51:42;;;;;;;19.88;9.13;;;;;;;;;;5019996;28;20138;-80
2021/12/09 05:54:10;;;;;;;16.88;8.10;;;;;;;;;;5018206;28;20041;-80
2021/12/09 05:56:37;;;;;;;18.10;8.48;;;;;;;;;;5019273;28;20042;-79
2021/12/09 05:59:07;;;;;;;16.17;7.82;;;;;;;;;;5016605;28;20060;-78
2021/12/09 06:01:36;;;;;;;16.75;8.25;;;;;;;;;;5017964;28;20046;-80
2021/12/09 06:04:03;;;;;;;20.38;8.98;;;;;;;;;;5019109;28;20323;-80
2021/12/09 06:06:30;;;;;;;16.30;8.20;;;;;;;;;;5015674;28;20050;-78
2021/12/09 06:08:57;;;;;;;16.88;8.20;;;;;;;;;;5013353;28;20041;-79
2021/12/09 06:11:24;;;;;;;16.38;7.75;;;;;;;;;;5013994;28;20089;-78
2021/12/09 06:13:52;;;;;;;16.48;8.15;;;;;;;;;;5017780;28;20053;-80
2021/12/09 06:16:20;;;;;;;17.00;8.60;;;;;;;;;;5021027;28;20049;-80
2021/12/09 06:18:48;;;;;;;16.90;7.97;;;;;;;;;;5020915;28;20069;-80
2021/12/09 06:21:15;;;;;;;16.83;8.32;;;;;;;;;;5020949;28;20165;-82
2021/12/09 06:23:42;;;;;;;16.40;7.90;;;;;;;;;;5020785;28;20050;-79
2021/12/09 06:26:09;;;;;;;20.48;9.77;;;;;;;;;;5020633;28;20096;-81
2021/12/09 06:28:38;;;;;;;20.15;9.18;;;;;;;;;;5025626;28;20141;-78
2021/12/09 06:31:05;;;;;;;20.60;8.95;;;;;;;;;;5030876;28;20118;-78
2021/12/09 06:33:32;;;;;;;15.20;7.18;;;;;;;;;;5026836;28;20042;-80
2021/12/09 06:36:01;;;;;;;16.85;8.07;;;;;;;;;;5029571;28;20135;-78
2021/12/09 06:38:28;;;;;;;15.52;7.63;;;;;;;;;;5029066;28;20054;-78
2021/12/09 06:40:55;;;;;;;16.02;7.68;;;;;;;;;;5022869;28;20049;-78
2021/12/09 06:43:22;;;;;;;16.38;6.82;;;;;;;;;;5030701;28;20057;-78
2021/12/09 06:45:50;;;;;;;14.23;6.78;;;;;;;;;;5022880;28;20136;-78
2021/12/09 06:48:17;;;;;;;17.38;7.93;;;;;;;;;;5016295;28;20125;-80
2021/12/09 06:50:43;;;;;;;15.05;7.40;;;;;;;;;;5016914;28;20096;-79
2021/12/09 06:53:14;;;;;;;16.80;7.28;;;;;;;;;;5016390;28;20108;-79
2021/12/09 06:55:41;;;;;;;;;;;;;;;;;;5021605;28;20493;-80
2021/12/09 06:58:08;;;;;;;13.85;6.70;;;;;;;;;;5023586;28;19929;-80
2021/12/09 07:00:40;;;;;;;14.75;6.63;;;;;;;;;;5020754;28;20697;-79
2021/12/09 07:03:07;;;;;;;14.50;7.18;;;;;;;;;;5016324;28;20046;-77
2021/12/09 07:05:35;;;;;;;15.70;6.57;;;;;;;;;;5018593;28;20050;-80
2021/12/09 07:08:02;;;;;;;14.75;6.68;;;;;;;;;;5017696;28;20104;-78
2021/12/09 07:10:30;;;;;;;16.20;7.05;;;;;;;;;;5020416;28;20054;-80
2021/12/09 07:12:57;;;;;;;12.18;6.28;;;;;;;;;;5018000;28;20168;-79
2021/12/09 07:15:24;;;;;;;13.18;6.28;;;;;;;;;;5018665;28;20049;-78
2021/12/09 07:17:51;;;;;;;11.02;5.38;;;;;;;;;;5020341;28;20046;-79
2021/12/09 07:20:24;;;;;;;11.60;6.03;;;;;;;;;;5022171;28;20045;-79
2021/12/09 07:22:51;;;;;;;12.65;6.22;;;;;;;;;;5018424;28;20054;-77
2021/12/09 07:25:19;;;;;;;12.63;5.80;;;;;;;;;;5016333;28;20056;-79
2021/12/09 07:27:48;;;;;;;12.20;6.45;;;;;;;;;;5020845;28;20145;-80
2021/12/09 07:30:17;;;;;;;11.88;5.40;;;;;;;;;;5028946;23;20076;-79
2021/12/09 07:32:44;;;;;;;12.88;6.13;;;;;;;;;;5021232;28;20049;-80
2021/12/09 07:35:12;;;;;;;11.70;5.70;;;;;;;;;;5020586;28;20054;-79
2021/12/09 07:37:41;;;;;;;13.57;6.78;;;;;;;;;;5020491;28;20058;-79
2021/12/09 07:40:11;;;;;;;10.93;5.93;;;;;;;;;;5019175;28;20072;-79
2021/12/09 07:42:38;;;;;;;11.43;5.77;;;;;;;;;;5020465;28;20088;-78
2021/12/09 07:45:09;;;;;;;11.50;5.97;;;;;;;;;;5021261;28;20279;-80
2021/12/09 07:47:36;;;;;;;11.75;6.22;;;;;;;;;;5024792;28;20073;-78
2021/12/09 07:50:03;;;;;;;12.48;6.28;;;;;;;;;;5022082;28;20532;-80
2021/12/09 07:52:30;;;;;;;11.48;5.88;;;;;;;;;;5022210;28;20053;-79
2021/12/09 07:54:56;;;;;;;13.30;6.07;;;;;;;;;;5021591;28;20096;-80
2021/12/09 07:57:23;;;;;;;13.45;6.18;;;;;;;;;;5026822;28;20050;-80
2021/12/09 07:59:50;;;;;;;14.80;7.30;;;;;;;;;;5025807;28;20046;-80
2021/12/09 08:02:18;;;;;;;13.95;6.85;;;;;;;;;;5024549;28;20050;-80
2021/12/09 08:04:45;;;;;;;15.27;7.40;;;;;;;;;;5024094;28;20046;-81
2021/12/09 08:07:12;;;;;;;13.20;6.50;;;;;;;;;;5024106;28;20054;-80
2021/12/09 08:09:39;;;;;;;13.88;6.78;;;;;;;;;;5009550;28;20423;-78
2021/12/09 08:12:07;;;;;;;12.68;6.50;;;;;;;;;;5000080;28;20042;-80
2021/12/09 08:14:33;;;;;;;15.52;7.50;;;;;;;;;;5000224;28;20672;-80
2021/12/09 08:17:12;;;;;;;14.80;6.88;;;;;;;;;;5000361;28;20509;-80
2021/12/09 08:19:40;;;;;;;12.23;6.05;;;;;;;;;;5000008;28;20101;-79
2021/12/09 08:22:08;;;;;;;12.48;6.03;;;;;;;;;;4999650;28;20107;-80
2021/12/09 08:24:35;;;;;;;14.52;6.57;;;;;;;;;;4999652;28;20089;-80
2021/12/09 08:27:02;;;;;;;15.88;6.75;;;;;;;;;;5000742;28;20054;-80
2021/12/09 08:29:28;;;;;;;13.27;6.13;;;;;;;;;;4999817;28;20093;-80
2021/12/09 08:31:55;;;;;;;20.45;7.70;;;;;;;;;;4999377;28;20050;-80
2021/12/09 08:34:22;;;;;;;15.93;6.35;;;;;;;;;;4999971;28;20045;-80
2021/12/09 08:36:51;;;;;;;15.30;6.82;;;;;;;;;;4999988;28;20456;-80
2021/12/09 08:39:18;;;;;;;11.00;5.55;;;;;;;;;;4998997;28;20461;-79
2021/12/09 08:41:46;;;;;;;12.18;6.30;;;;;;;;;;5000675;28;20666;-79
2021/12/09 08:44:13;;;;;;;10.50;5.25;;;;;;;;;;5002669;28;20062;-80
2021/12/09 08:46:40;;;;;;;15.88;5.75;;;;;;;;;;5003907;28;20060;-80
2021/12/09 08:49:08;;;;;;;15.15;5.90;;;;;;;;;;5002748;28;20061;-80
2021/12/09 08:51:35;;;;;;;13.23;6.43;;;;;;;;;;5003352;28;20498;-80
2021/12/09 08:54:04;;;;;;;14.32;7.45;;;;;;;;;;5000104;28;20069;-80
2021/12/09 08:56:31;;;;;;;11.75;6.28;;;;;;;;;;5000980;28;20046;-80
2021/12/09 08:58:58;;;;;;;11.38;5.88;;;;;;;;;;4999574;28;20046;-80
2021/12/09 09:01:25;;;;;;;12.98;6.78;;;;;;;;;;5002569;28;20449;-80
2021/12/09 09:03:51;;;;;;;12.23;5.88;;;;;;;;;;4999695;28;20043;-79
2021/12/09 09:06:18;;;;;;;12.52;6.20;;;;;;;;;;4999453;28;20501;-80
2021/12/09 09:08:45;;;;;;;12.15;6.03;;;;;;;;;;4999062;28;20161;-82
2021/12/09 09:11:13;;;;;;;14.32;6.40;;;;;;;;;;4998931;28;20068;-80
2021/12/09 09:13:41;;;;;;;14.73;6.38;;;;;;;;;;4999426;28;20538;-80
2021/12/09 09:16:08;;;;;;;11.07;5.45;;;;;;;;;;5000511;28;20065;-84
2021/12/09 09:18:35;;;;;;;13.32;7.03;;;;;;;;;;4999619;28;20046;-79
2021/12/09 09:21:02;;;;;;;12.52;6.32;;;;;;;;;;4999525;28;20042;-80
2021/12/09 09:23:29;;;;;;;12.43;6.38;;;;;;;;;;5000034;28;20111;-79
2021/12/09 09:25:56;;;;;;;12.77;7.22;;;;;;;;;;4999982;28;20508;-80
2021/12/09 09:28:24;;;;;;;15.27;7.70;;;;;;;;;;4998295;28;20405;-80
2021/12/09 09:30:56;;;;;;;12.88;6.55;;;;;;;;;;5000196;28;20140;-79
2021/12/09 09:33:26;;;;;;;14.55;7.20;;;;;;;;;;5003695;28;20052;-78
2021/12/09 09:35:53;;;;;;;13.80;6.93;;;;;;;;;;5003406;28;20583;-79
2021/12/09 09:38:22;;;;;;;14.27;7.20;;;;;;;;;;5001137;28;20049;-79
2021/12/09 09:40:54;;;;;;;13.07;6.35;;;;;;;;;;5000771;28;20073;-79
2021/12/09 09:43:31;;;;;;;15.07;7.70;;;;;;;;;;4999928;28;20050;-79
2021/12/09 09:46:04;;;;;;;12.20;6.82;;;;;;;;;;4999266;28;20046;-79
2021/12/09 09:48:31;;;;;;;14.20;7.80;;;;;;;;;;4999502;28;20104;-79
2021/12/09 09:50:59;;;;;;;14.13;7.00;;;;;;;;;;5000276;28;20050;-79
2021/12/09 09:53:26;;;;;;;15.40;7.68;;;;;;;;;;4999688;28;20045;-80
2021/12/09 09:55:53;;;;;;;20.50;9.32;;;;;;;;;;4999054;28;20112;-79
2021/12/09 09:58:20;;;;;;;18.33;8.85;;;;;;;;;;5000859;28;20050;-79
2021/12/09 10:00:47;;;;;;;15.85;7.82;;;;;;;;;;5002103;28;20043;-79
2021/12/09 10:03:17;;;;;;;18.90;8.73;;;;;;;;;;5007792;28;20457;-79
2021/12/09 10:05:47;;;;;;;16.60;8.05;;;;;;;;;;5006911;28;20143;-78
2021/12/09 10:08:16;;;;;;;17.02;9.10;;;;;;;;;;5002902;28;20731;-79
2021/12/09 10:10:45;;;;;;;20.13;8.70;;;;;;;;;;5003596;28;20085;-79
2021/12/09 10:13:15;;;;;;;21.02;9.55;;;;;;;;;;5003062;28;20057;-79
2021/12/09 10:15:46;;;;;;;17.90;9.23;;;;;;;;;;5005875;28;20100;-79
2021/12/09 10:18:14;;;;;;;19.05;9.35;;;;;;;;;;5003928;28;20038;-79
2021/12/09 10:20:49;;;;;;;17.75;9.48;;;;;;;;;;5004003;28;20050;-80
2021/12/09 10:23:31;;;;;;;21.55;10.55;;;;;;;;;;5003878;28;20050;-80
2021/12/09 10:26:12;;;;;;;19.40;9.32;;;;;;;;;;5003660;28;20042;-79
2021/12/09 10:28:43;;;;;;;21.85;10.63;;;;;;;;;;5003600;28;20435;-79
2021/12/09 10:31:14;;;;;;;21.33;9.63;;;;;;;;;;5004307;28;20808;-80
2021/12/09 10:34:18;;;;;;;;;;;;;;;;;;5002882;28;20167;-80
2021/12/09 10:36:57;;;;;;;20.40;9.43;;;;;;;;;;5002286;28;19937;-78
2021/12/09 10:39:32;;;;;;;28.27;12.07;;;;;;;;;;5002680;28;20046;-80
2021/12/09 10:42:01;;;;;;;23.98;11.13;;;;;;;;;;5003251;28;20045;-80
2021/12/09 10:44:47;;;;;;;23.48;10.85;;;;;;;;;;5003666;28;20107;-80
2021/12/09 10:47:22;;;;;;;23.20;11.00;;;;;;;;;;5003600;28;20069;-80
2021/12/09 10:50:07;;;;;;;25.27;11.25;;;;;;;;;;5002906;28;20108;-80
2021/12/09 10:52:40;;;;;;;22.40;10.77;;;;;;;;;;5003111;28;20050;-79
2021/12/09 10:55:14;;;;;;;23.23;10.45;;;;;;;;;;5002542;28;20077;-79
2021/12/09 10:57:42;;;;;;;22.60;11.40;;;;;;;;;;5001898;28;20047;-80
2021/12/09 11:00:21;;;;;;;25.15;11.30;;;;;;;;;;5001301;28;20101;-79
2021/12/09 11:02:59;;;;;;;21.77;9.98;;;;;;;;;;5003051;28;20054;-80
2021/12/09 11:05:27;;;;;;;27.50;11.07;;;;;;;;;;5002793;28;20050;-80
2021/12/09 11:08:11;;;;;;;23.52;11.82;;;;;;;;;;5002499;28;20093;-78
2021/12/09 11:10:45;;;;;;;24.10;10.85;;;;;;;;;;5004704;28;20144;-82
2021/12/09 11:13:13;;;;;;;22.02;10.25;;;;;;;;;;5003911;28;20106;-81
2021/12/09 11:15:54;;;;;;;20.60;10.50;;;;;;;;;;5002034;28;20493;-79
2021/12/09 11:18:41;;;;;;;21.88;10.05;;;;;;;;;;5002216;28;20049;-79
2021/12/09 11:21:11;;;;;;;20.27;10.35;;;;;;;;;;5000897;28;20085;-78
2021/12/09 11:23:50;;;;;;;21.48;9.93;;;;;;;;;;5002642;28;20042;-79
2021/12/09 11:26:32;;;;;;;22.90;11.23;;;;;;;;;;5001570;28;20579;-81
2021/12/09 11:29:00;;;;;;;20.58;10.00;;;;;;;;;;5000113;28;20128;-82
2021/12/09 11:31:32;;;;;;;18.65;9.25;;;;;;;;;;4999946;28;20099;-82
2021/12/09 11:34:05;;;;;;;19.65;9.52;;;;;;;;;;5000337;28;20052;-80
2021/12/09 11:36:56;;;;;;;22.15;9.60;;;;;;;;;;5002420;28;20054;-79
2021/12/09 11:39:31;;;;;;;17.98;9.02;;;;;;;;;;5001478;28;20055;-80
2021/12/09 11:42:10;;;;;;;16.00;8.23;;;;;;;;;;5002430;28;20043;-79
2021/12/09 11:44:37;;;;;;;17.85;8.65;;;;;;;;;;5001202;28;20045;-80
2021/12/09 11:47:05;;;;;;;17.85;8.85;;;;;;;;;;5001988;28;20469;-79
2021/12/09 11:49:32;;;;;;;16.25;8.38;;;;;;;;;;5000063;28;20046;-80
2021/12/09 11:51:58;;;;;;;18.95;8.48;;;;;;;;;;5000846;28;20050;-80
2021/12/09 11:54:27;;;;;;;16.80;8.45;;;;;;;;;;5002691;28;20038;-80
2021/12/09 11:57:14;;;;;;;18.70;8.15;;;;;;;;;;5001022;28;20053;-80
2021/12/09 12:11:42;;;;;;;17.85;7.80;;;;;;;;;;5000107;28;20060;-80
2021/12/09 12:14:35;;;;;;;18.55;8.63;;;;;;;;;;4991325;28;20106;-81
2021/12/09 12:17:24;;;;;;;17.30;7.68;;;;;;;;;;5002724;28;20046;-81
2021/12/09 12:20:07;;;;;;;14.38;7.35;;;;;;;;;;5003569;28;20077;-80
2021/12/09 12:22:50;;;;;;;24.77;11.25;;;;;;;;;;5015320;28;20045;-80
2021/12/09 12:26:14;;;;;;;23.95;9.70;;;;;;;;;;5007671;28;20748;-81
2021/12/09 12:29:10;;;;;;;23.13;9.73;;;;;;;;;;5001983;28;20080;-79
2021/12/09 12:35:12;;;;;;;19.70;9.05;;;;;;;;;;5001168;28;20101;-82
2021/12/09 12:37:52;;;;;;;18.35;9.65;;;;;;;;;;5001304;28;20060;-82
2021/12/09 12:40:21;;;;;;;16.10;8.95;;;;;;;;;;5001279;28;20056;-79
2021/12/09 12:42:55;;;;;;;22.58;11.02;;;;;;;;;;5000979;28;20045;-79
2021/12/09 12:45:50;;;;;;;22.40;10.88;;;;;;;;;;5002088;28;20135;-80
2021/12/09 12:49:02;;;;;;;26.45;11.00;;;;;;;;;;5001052;28;20053;-80
2021/12/09 12:51:34;;;;;;;29.08;12.27;;;;;;;;;;5000584;28;20045;-80
2021/12/09 12:54:06;;;;;;;20.70;9.63;;;;;;;;;;5005783;28;20057;-79
2021/12/09 12:56:41;;;;;;;21.80;8.88;;;;;;;;;;5002628;28;20046;-79
2021/12/09 12:59:23;;;;;;;27.60;12.15;;;;;;;;;;5007910;28;20061;-77
2021/12/09 13:05:18;;;;;;;21.35;10.57;;;;;;;;;;5019492;28;20050;-76
2021/12/09 13:08:03;;;;;;;25.17;10.55;;;;;;;;;;5021373;28;20064;-76
2021/12/09 13:10:46;;;;;;;18.25;9.07;;;;;;;;;;5020826;28;20038;-77
2021/12/09 13:13:19;;;;;;;;;;;;;;;;;;5019001;28;20052;-80
2021/12/09 13:16:05;;;;;;;22.17;8.50;;;;;;;;;;5016473;28;19930;-78
2021/12/09 13:18:52;;;;;;;16.27;7.72;;;;;;;;;;5015246;28;20040;-80
2021/12/09 13:21:43;;;;;;;20.98;8.43;;;;;;;;;;5015488;28;20050;-79
2021/12/09 13:24:30;;;;;;;;;;;;;;;;;;5007465;28;20046;-81
2021/12/09 13:27:12;;;;;;;15.68;7.43;;;;;;;;;;5001088;28;19925;-80
2021/12/09 13:29:50;;;;;;;13.60;7.18;;;;;;;;;;5000626;28;20068;-80
2021/12/09 13:32:56;;;;;;;19.67;8.25;;;;;;;;;;5001424;28;20054;-81
2021/12/09 13:35:36;;;;;;;16.00;7.95;;;;;;;;;;5001755;28;20046;-81
2021/12/09 13:38:38;;;;;;;15.65;8.02;;;;;;;;;;5001588;28;20057;-81
2021/12/09 13:47:00;;;;;;;15.70;7.50;;;;;;;;;;4991008;28;20069;-65
2021/12/09 13:49:41;;;;;;;14.05;7.75;;;;;;;;;;4991066;28;20051;-65
2021/12/09 13:55:00;;;;;;;16.83;8.60;;;;;;;;;;4973178;28;20455;-64
2021/12/09 13:57:34;;;;;;;14.10;7.18;;;;;;;;;;4990570;28;20130;-65
2021/12/09 14:00:03;;;;;;;19.35;7.38;;;;;;;;;;4991355;28;20097;-63
2021/12/09 14:02:30;;;;;;;15.02;7.20;;;;;;;;;;4990707;28;20065;-64
2021/12/09 14:05:00;;;;;;;14.85;7.22;;;;;;;;;;4991263;28;20049;-65
2021/12/09 14:07:33;;;;;;;11.75;6.63;;;;;;;;;;4990468;28;20053;-65
2021/12/09 14:10:04;;;;;;;16.50;7.47;;;;;;;;;;4990979;28;20412;-65
2021/12/09 14:12:39;;;;;;;14.57;6.88;;;;;;;;;;4990432;28;20054;-63
2021/12/09 14:15:08;;;;;;;12.13;6.38;;;;;;;;;;4990694;28;20105;-64
2021/12/09 14:17:37;;;;;;;13.48;6.65;;;;;;;;;;4990638;28;20504;-64
2021/12/09 14:20:07;;;;;;;13.07;7.22;;;;;;;;;;4990278;28;20051;-63
2021/12/09 14:22:38;;;;;;;14.35;7.55;;;;;;;;;;4990367;28;20100;-63
2021/12/09 14:25:10;;;;;;;14.52;7.25;;;;;;;;;;4990377;28;20043;-64
2021/12/09 14:27:38;;;;;;;14.35;7.22;;;;;;;;;;4990845;28;20128;-65
2021/12/09 14:30:11;;;;;;;15.50;6.68;;;;;;;;;;4990720;28;20050;-65
2021/12/09 14:32:44;;;;;;;12.93;6.75;;;;;;;;;;4990761;28;20050;-65
2021/12/09 14:35:21;;;;;;;15.45;7.90;;;;;;;;;;4989935;28;20419;-65
2021/12/09 14:37:51;;;;;;;12.52;7.05;;;;;;;;;;4990445;28;20057;-65
2021/12/09 14:40:23;;;;;;;17.77;7.33;;;;;;;;;;4990878;28;20460;-64
2021/12/09 14:42:54;;;;;;;15.20;7.40;;;;;;;;;;4990431;28;20090;-63
2021/12/09 14:45:22;;;;;;;13.07;6.72;;;;;;;;;;4990579;28;20495;-65
2021/12/09 14:48:03;;;;;;;13.40;6.85;;;;;;;;;;4990921;28;20440;-65
2021/12/09 14:50:36;;;;;;;14.73;7.95;;;;;;;;;;4990532;28;20424;-65
2021/12/09 14:53:05;;;;;;;15.75;6.75;;;;;;;;;;4990045;28;20408;-64
2021/12/09 14:55:32;;;;;;;13.70;6.50;;;;;;;;;;4991863;28;20058;-66
2021/12/09 14:58:05;;;;;;;13.38;6.30;;;;;;;;;;4993715;28;20097;-66
2021/12/09 15:00:41;;;;;;;13.13;6.88;;;;;;;;;;4993813;28;20057;-66
2021/12/09 15:03:11;;;;;;;14.10;6.95;;;;;;;;;;4993593;28;20427;-64
2021/12/09 15:05:54;;;;;;;13.57;6.90;;;;;;;;;;4993191;28;20042;-64
2021/12/09 15:08:24;;;;;;;11.50;5.88;;;;;;;;;;4993424;28;20287;-64
2021/12/09 15:10:53;;;;;;;12.15;6.45;;;;;;;;;;4993756;28;20082;-64
2021/12/09 15:13:23;;;;;;;13.55;6.28;;;;;;;;;;4993483;28;20054;-64
2021/12/09 15:16:02;;;;;;;12.70;6.10;;;;;;;;;;4993109;28;20488;-66
2021/12/09 15:18:30;;;;;;;15.43;6.10;;;;;;;;;;4993524;28;20042;-67
2021/12/09 15:21:08;;;;;;;12.90;5.97;;;;;;;;;;4993587;28;20509;-65